sensor_id;sensor_type;location;lat;lon;timestamp;temperature;humidity
16388;DHT22;8303;53.446;9.988;2023-06-22T04:43:41;17.80;1.00
16388;DHT22;8303;53.446;9.988;2023-06-22T04:46:08;17.70;1.00
16388;DHT22;8303;53.446;9.988;2023-06-22T04:48:35;17.70;1.00
16388;DHT22;8303;53.446;9.988;2023-06-22T04:51:03;17.80;1.00
16388;DHT22;8303;53.446;9.988;2023-06-22T04:53:30;18.00;1.00
16388;DHT22;8303;53.446;9.988;2023-06-22T04:55:57;18.10;1.00
16388;DHT22;8303;53.446;9.988;2023-06-22T04:58:24;18.30;1.00
16388;DHT22;8303;53.446;9.988;2023-06-22T05:00:54;18.40;1.00
16388;DHT22;8303;53.446;9.988;2023-06-22T05:03:24;18.60;1.00
16388;DHT22;8303;53.446;9.988;2023-06-22T05:05:52;18.80;1.00
16388;DHT22;8303;53.446;9.988;2023-06-22T05:08:19;18.90;1.00
16388;DHT22;8303;53.446;9.988;2023-06-22T05:10:46;19.00;1.00
16388;DHT22;8303;53.446;9.988;2023-06-22T05:13:14;19.00;99.90
16388;DHT22;8303;53.446;9.988;2023-06-22T05:15:41;19.00;99.90
16388;DHT22;8303;53.446;9.988;2023-06-22T05:18:11;19.10;6.50
16388;DHT22;8303;53.446;9.988;2023-06-22T05:20:38;19.20;1.00
16388;DHT22;8303;53.446;9.988;2023-06-22T05:23:05;19.30;1.00
16388;DHT22;8303;53.446;9.988;2023-06-22T05:25:32;19.30;1.00
16388;DHT22;8303;53.446;9.988;2023-06-22T05:30:50;19.40;1.00
16388;DHT22;8303;53.446;9.988;2023-06-22T05:33:19;19.50;99.90
16388;DHT22;8303;53.446;9.988;2023-06-22T05:35:49;19.70;99.90
16388;DHT22;8303;53.446;9.988;2023-06-22T05:38:16;20.10;1.00
16388;DHT22;8303;53.446;9.988;2023-06-22T05:40:43;20.20;1.00
16388;DHT22;8303;53.446;9.988;2023-06-22T05:43:10;20.30;1.00
16388;DHT22;8303;53.446;9.988;2023-06-22T05:45:37;20.10;1.00
16388;DHT22;8303;53.446;9.988;2023-06-22T05:48:04;20.10;1.00
16388;DHT22;8303;53.446;9.988;2023-06-22T05:50:33;20.30;1.00
16388;DHT22;8303;53.446;9.988;2023-06-22T05:53:00;20.60;99.90
16388;DHT22;8303;53.446;9.988;2023-06-22T05:55:27;20.70;1.00
16388;DHT22;8303;53.446;9.988;2023-06-22T05:57:54;21.00;1.00
16388;DHT22;8303;53.446;9.988;2023-06-22T06:00:24;20.90;1.00
16388;DHT22;8303;53.446;9.988;2023-06-22T06:02:51;20.90;99.90
16388;DHT22;8303;53.446;9.988;2023-06-22T06:05:19;20.90;99.90
16388;DHT22;8303;53.446;9.988;2023-06-22T06:07:47;20.90;1.00
16388;DHT22;8303;53.446;9.988;2023-06-22T06:10:15;21.00;1.00
16388;DHT22;8303;53.446;9.988;2023-06-22T06:12:42;21.10;41.30
16388;DHT22;8303;53.446;9.988;2023-06-22T06:15:09;21.20;1.00
16388;DHT22;8303;53.446;9.988;2023-06-22T06:17:45;21.20;1.00
16388;DHT22;8303;53.446;9.988;2023-06-22T06:20:13;21.00;1.00
16388;DHT22;8303;53.446;9.988;2023-06-22T06:22:40;21.10;1.00
16388;DHT22;8303;53.446;9.988;2023-06-22T06:25:10;21.10;1.00
16388;DHT22;8303;53.446;9.988;2023-06-22T06:27:42;21.20;1.00
16388;DHT22;8303;53.446;9.988;2023-06-22T06:30:10;21.60;99.90
16388;DHT22;8303;53.446;9.988;2023-06-22T06:32:38;21.70;99.90
16388;DHT22;8303;53.446;9.988;2023-06-22T06:35:09;21.90;1.00
16388;DHT22;8303;53.446;9.988;2023-06-22T06:37:38;21.90;1.00
16388;DHT22;8303;53.446;9.988;2023-06-22T06:40:06;22.00;99.90
16388;DHT22;8303;53.446;9.988;2023-06-22T06:42:37;22.20;99.90
16388;DHT22;8303;53.446;9.988;2023-06-22T06:45:08;22.40;1.00
16388;DHT22;8303;53.446;9.988;2023-06-22T06:47:35;22.40;1.00
16388;DHT22;8303;53.446;9.988;2023-06-22T06:50:02;22.40;1.00
16388;DHT22;8303;53.446;9.988;2023-06-22T06:52:29;22.30;1.00
16388;DHT22;8303;53.446;9.988;2023-06-22T06:54:58;22.40;1.00
16388;DHT22;8303;53.446;9.988;2023-06-22T06:57:30;22.40;1.00
16388;DHT22;8303;53.446;9.988;2023-06-22T06:59:59;22.50;1.00
16388;DHT22;8303;53.446;9.988;2023-06-22T07:02:27;22.70;99.90
16388;DHT22;8303;53.446;9.988;2023-06-22T07:04:55;22.80;1.00
16388;DHT22;8303;53.446;9.988;2023-06-22T07:07:22;22.60;1.00
16388;DHT22;8303;53.446;9.988;2023-06-22T07:09:49;22.60;1.00
16388;DHT22;8303;53.446;9.988;2023-06-22T07:29:07;22.40;1.00
16388;DHT22;8303;53.446;9.988;2023-06-22T07:31:37;22.40;1.00
16388;DHT22;8303;53.446;9.988;2023-06-22T07:34:06;22.40;1.00
16388;DHT22;8303;53.446;9.988;2023-06-22T07:36:33;22.40;99.90
16388;DHT22;8303;53.446;9.988;2023-06-22T07:39:01;22.60;30.00
16388;DHT22;8303;53.446;9.988;2023-06-22T07:41:29;22.80;99.90
16388;DHT22;8303;53.446;9.988;2023-06-22T07:43:56;23.10;1.00
16388;DHT22;8303;53.446;9.988;2023-06-22T07:46:25;23.40;1.00
16388;DHT22;8303;53.446;9.988;2023-06-22T07:48:52;23.50;1.00
16388;DHT22;8303;53.446;9.988;2023-06-22T07:51:19;23.70;1.00
16388;DHT22;8303;53.446;9.988;2023-06-22T07:53:46;23.90;1.00
16388;DHT22;8303;53.446;9.988;2023-06-22T07:56:13;24.00;1.00
16388;DHT22;8303;53.446;9.988;2023-06-22T07:58:45;24.00;1.00
16388;DHT22;8303;53.446;9.988;2023-06-22T08:01:14;23.90;1.00
16388;DHT22;8303;53.446;9.988;2023-06-22T08:03:43;23.80;1.00
16388;DHT22;8303;53.446;9.988;2023-06-22T08:06:10;24.20;1.00
16388;DHT22;8303;53.446;9.988;2023-06-22T08:08:40;24.40;99.90
16388;DHT22;8303;53.446;9.988;2023-06-22T08:11:08;24.40;99.90
16388;DHT22;8303;53.446;9.988;2023-06-22T08:13:35;24.10;99.90
16388;DHT22;8303;53.446;9.988;2023-06-22T08:16:02;24.40;99.90
16388;DHT22;8303;53.446;9.988;2023-06-22T08:18:29;24.60;99.90
16388;DHT22;8303;53.446;9.988;2023-06-22T08:20:57;24.90;99.90
16388;DHT22;8303;53.446;9.988;2023-06-22T08:23:24;25.10;99.90
16388;DHT22;8303;53.446;9.988;2023-06-22T08:25:51;24.70;99.90
16388;DHT22;8303;53.446;9.988;2023-06-22T08:28:22;24.20;99.90
16388;DHT22;8303;53.446;9.988;2023-06-22T08:30:49;24.40;99.90
16388;DHT22;8303;53.446;9.988;2023-06-22T08:33:16;24.50;99.90
16388;DHT22;8303;53.446;9.988;2023-06-22T08:35:43;24.30;99.90
16388;DHT22;8303;53.446;9.988;2023-06-22T08:38:11;24.30;99.90
16388;DHT22;8303;53.446;9.988;2023-06-22T08:40:41;24.50;99.90
16388;DHT22;8303;53.446;9.988;2023-06-22T08:43:08;24.60;99.90
16388;DHT22;8303;53.446;9.988;2023-06-22T08:45:37;24.60;99.90
16388;DHT22;8303;53.446;9.988;2023-06-22T08:48:04;24.50;99.90
16388;DHT22;8303;53.446;9.988;2023-06-22T08:50:31;24.60;99.90
16388;DHT22;8303;53.446;9.988;2023-06-22T08:52:58;24.60;99.90
16388;DHT22;8303;53.446;9.988;2023-06-22T08:55:27;24.40;99.90
16388;DHT22;8303;53.446;9.988;2023-06-22T08:57:54;24.30;99.90
16388;DHT22;8303;53.446;9.988;2023-06-22T09:00:21;24.50;99.90
16388;DHT22;8303;53.446;9.988;2023-06-22T09:02:48;24.70;99.90
16388;DHT22;8303;53.446;9.988;2023-06-22T09:05:15;25.00;99.90
16388;DHT22;8303;53.446;9.988;2023-06-22T09:07:47;25.20;99.90
16388;DHT22;8303;53.446;9.988;2023-06-22T09:10:14;25.00;99.90
16388;DHT22;8303;53.446;9.988;2023-06-22T09:12:42;25.20;99.90
16388;DHT22;8303;53.446;9.988;2023-06-22T09:15:10;25.00;99.90
16388;DHT22;8303;53.446;9.988;2023-06-22T09:17:37;24.70;99.90
16388;DHT22;8303;53.446;9.988;2023-06-22T09:20:08;24.70;99.90
16388;DHT22;8303;53.446;9.988;2023-06-22T09:22:36;24.80;99.90
16388;DHT22;8303;53.446;9.988;2023-06-22T09:25:04;25.10;99.90
16388;DHT22;8303;53.446;9.988;2023-06-22T09:27:35;25.40;99.90
16388;DHT22;8303;53.446;9.988;2023-06-22T09:30:04;25.30;99.90
16388;DHT22;8303;53.446;9.988;2023-06-22T09:32:32;25.30;99.90
16388;DHT22;8303;53.446;9.988;2023-06-22T09:35:02;25.40;99.90
16388;DHT22;8303;53.446;9.988;2023-06-22T09:37:29;25.60;99.90
16388;DHT22;8303;53.446;9.988;2023-06-22T09:39:56;25.80;99.90
16388;DHT22;8303;53.446;9.988;2023-06-22T09:42:23;26.00;99.90
16388;DHT22;8303;53.446;9.988;2023-06-22T09:44:50;26.20;99.90
16388;DHT22;8303;53.446;9.988;2023-06-22T09:47:19;26.30;99.90
16388;DHT22;8303;53.446;9.988;2023-06-22T09:49:46;26.20;99.90
16388;DHT22;8303;53.446;9.988;2023-06-22T09:52:13;26.20;99.90
16388;DHT22;8303;53.446;9.988;2023-06-22T09:54:40;26.20;99.90
16388;DHT22;8303;53.446;9.988;2023-06-22T09:57:07;26.20;99.90
16388;DHT22;8303;53.446;9.988;2023-06-22T09:59:34;26.40;99.90
16388;DHT22;8303;53.446;9.988;2023-06-22T10:02:08;26.40;99.90
16388;DHT22;8303;53.446;9.988;2023-06-22T10:04:36;26.30;99.90
16388;DHT22;8303;53.446;9.988;2023-06-22T10:07:05;26.20;99.90
16388;DHT22;8303;53.446;9.988;2023-06-22T10:09:32;26.20;99.90
16388;DHT22;8303;53.446;9.988;2023-06-22T10:11:59;26.20;99.90
16388;DHT22;8303;53.446;9.988;2023-06-22T10:14:26;26.30;99.90
16388;DHT22;8303;53.446;9.988;2023-06-22T10:16:55;26.60;99.90
16388;DHT22;8303;53.446;9.988;2023-06-22T10:19:25;26.70;99.90
16388;DHT22;8303;53.446;9.988;2023-06-22T10:21:54;26.60;99.90
16388;DHT22;8303;53.446;9.988;2023-06-22T10:24:21;26.60;99.90
16388;DHT22;8303;53.446;9.988;2023-06-22T10:26:48;26.70;99.90
16388;DHT22;8303;53.446;9.988;2023-06-22T10:29:15;26.70;99.90
16388;DHT22;8303;53.446;9.988;2023-06-22T10:31:42;26.90;99.90
16388;DHT22;8303;53.446;9.988;2023-06-22T10:34:09;27.00;99.90
16388;DHT22;8303;53.446;9.988;2023-06-22T10:36:36;27.10;99.90
16388;DHT22;8303;53.446;9.988;2023-06-22T10:39:05;27.10;99.90
16388;DHT22;8303;53.446;9.988;2023-06-22T10:41:32;27.00;99.90
16388;DHT22;8303;53.446;9.988;2023-06-22T10:43:59;27.30;99.90
16388;DHT22;8303;53.446;9.988;2023-06-22T10:46:26;27.40;99.90
16388;DHT22;8303;53.446;9.988;2023-06-22T10:48:53;27.40;99.90
16388;DHT22;8303;53.446;9.988;2023-06-22T10:51:22;27.40;99.90
16388;DHT22;8303;53.446;9.988;2023-06-22T10:53:49;27.50;99.90
16388;DHT22;8303;53.446;9.988;2023-06-22T10:56:18;27.40;99.90
16388;DHT22;8303;53.446;9.988;2023-06-22T10:58:45;27.40;99.90
16388;DHT22;8303;53.446;9.988;2023-06-22T11:01:12;27.60;99.90
16388;DHT22;8303;53.446;9.988;2023-06-22T11:03:39;27.10;99.90
16388;DHT22;8303;53.446;9.988;2023-06-22T11:06:06;27.30;99.90
16388;DHT22;8303;53.446;9.988;2023-06-22T11:08:33;27.60;99.90
16388;DHT22;8303;53.446;9.988;2023-06-22T11:11:00;27.80;99.90
16388;DHT22;8303;53.446;9.988;2023-06-22T11:13:28;27.90;99.90
16388;DHT22;8303;53.446;9.988;2023-06-22T11:15:55;28.00;99.90
16388;DHT22;8303;53.446;9.988;2023-06-22T11:18:22;27.90;99.90
16388;DHT22;8303;53.446;9.988;2023-06-22T11:20:49;27.80;99.90
16388;DHT22;8303;53.446;9.988;2023-06-22T11:23:16;28.20;99.90
16388;DHT22;8303;53.446;9.988;2023-06-22T11:25:43;28.00;99.90
16388;DHT22;8303;53.446;9.988;2023-06-22T11:28:10;28.20;99.90
16388;DHT22;8303;53.446;9.988;2023-06-22T11:30:38;28.70;99.90
16388;DHT22;8303;53.446;9.988;2023-06-22T11:33:05;28.80;99.90
16388;DHT22;8303;53.446;9.988;2023-06-22T11:35:31;28.80;99.90
16388;DHT22;8303;53.446;9.988;2023-06-22T11:37:58;28.70;99.90
16388;DHT22;8303;53.446;9.988;2023-06-22T11:40:25;29.20;99.90
16388;DHT22;8303;53.446;9.988;2023-06-22T11:42:52;29.40;99.90
16388;DHT22;8303;53.446;9.988;2023-06-22T11:45:19;29.10;99.90
16388;DHT22;8303;53.446;9.988;2023-06-22T11:47:47;29.20;99.90
16388;DHT22;8303;53.446;9.988;2023-06-22T11:50:14;29.10;99.90
16388;DHT22;8303;53.446;9.988;2023-06-22T11:52:41;29.40;99.90
16388;DHT22;8303;53.446;9.988;2023-06-22T11:55:08;29.60;99.90
16388;DHT22;8303;53.446;9.988;2023-06-22T11:57:36;29.80;99.90
16388;DHT22;8303;53.446;9.988;2023-06-22T12:00:04;30.40;99.90
16388;DHT22;8303;53.446;9.988;2023-06-22T12:02:39;31.30;99.90
16388;DHT22;8303;53.446;9.988;2023-06-22T12:05:08;31.30;99.90
16388;DHT22;8303;53.446;9.988;2023-06-22T12:07:35;31.20;99.90
16388;DHT22;8303;53.446;9.988;2023-06-22T12:10:02;31.10;99.90
16388;DHT22;8303;53.446;9.988;2023-06-22T12:12:29;30.60;99.90
16388;DHT22;8303;53.446;9.988;2023-06-22T12:14:56;30.60;99.90
16388;DHT22;8303;53.446;9.988;2023-06-22T12:17:22;30.30;99.90
16388;DHT22;8303;53.446;9.988;2023-06-22T12:19:49;29.80;99.90
16388;DHT22;8303;53.446;9.988;2023-06-22T12:22:17;29.50;99.90
16388;DHT22;8303;53.446;9.988;2023-06-22T12:24:44;29.40;99.90
16388;DHT22;8303;53.446;9.988;2023-06-22T12:27:11;29.30;99.90
16388;DHT22;8303;53.446;9.988;2023-06-22T12:29:38;29.40;99.90
16388;DHT22;8303;53.446;9.988;2023-06-22T12:32:06;29.30;99.90
16388;DHT22;8303;53.446;9.988;2023-06-22T12:34:33;29.40;99.90
16388;DHT22;8303;53.446;9.988;2023-06-22T12:37:00;29.20;99.90
16388;DHT22;8303;53.446;9.988;2023-06-22T12:39:28;29.10;99.90
16388;DHT22;8303;53.446;9.988;2023-06-22T12:41:55;28.80;99.90
16388;DHT22;8303;53.446;9.988;2023-06-22T12:44:22;28.80;99.90
16388;DHT22;8303;53.446;9.988;2023-06-22T12:46:49;29.10;99.90
16388;DHT22;8303;53.446;9.988;2023-06-22T12:49:16;29.40;99.90
16388;DHT22;8303;53.446;9.988;2023-06-22T12:51:44;29.80;99.90
16388;DHT22;8303;53.446;9.988;2023-06-22T12:54:12;29.70;99.90
16388;DHT22;8303;53.446;9.988;2023-06-22T12:56:40;29.90;99.90
16388;DHT22;8303;53.446;9.988;2023-06-22T12:59:09;30.30;99.90
16388;DHT22;8303;53.446;9.988;2023-06-22T13:01:36;30.50;99.90
16388;DHT22;8303;53.446;9.988;2023-06-22T13:04:03;30.20;99.90
16388;DHT22;8303;53.446;9.988;2023-06-22T13:06:30;30.00;99.90
16388;DHT22;8303;53.446;9.988;2023-06-22T13:08:57;29.80;99.90
16388;DHT22;8303;53.446;9.988;2023-06-22T13:11:24;29.50;99.90
16388;DHT22;8303;53.446;9.988;2023-06-22T13:13:52;29.30;99.90
16388;DHT22;8303;53.446;9.988;2023-06-22T13:16:19;28.90;99.90
16388;DHT22;8303;53.446;9.988;2023-06-22T13:18:46;28.80;99.90
16388;DHT22;8303;53.446;9.988;2023-06-22T13:21:13;28.60;99.90
16388;DHT22;8303;53.446;9.988;2023-06-22T13:23:40;28.70;99.90
16388;DHT22;8303;53.446;9.988;2023-06-22T13:26:07;28.60;99.90
16388;DHT22;8303;53.446;9.988;2023-06-22T13:28:34;28.50;99.90
16388;DHT22;8303;53.446;9.988;2023-06-22T13:31:02;28.60;99.90
16388;DHT22;8303;53.446;9.988;2023-06-22T13:33:29;28.40;99.90
16388;DHT22;8303;53.446;9.988;2023-06-22T13:35:56;28.40;99.90
16388;DHT22;8303;53.446;9.988;2023-06-22T13:38:23;28.40;99.90
16388;DHT22;8303;53.446;9.988;2023-06-22T13:40:50;28.60;99.90
16388;DHT22;8303;53.446;9.988;2023-06-22T13:43:17;28.60;99.90
16388;DHT22;8303;53.446;9.988;2023-06-22T13:45:44;28.40;99.90
16388;DHT22;8303;53.446;9.988;2023-06-22T13:48:12;28.30;99.90
16388;DHT22;8303;53.446;9.988;2023-06-22T13:50:39;28.50;99.90
16388;DHT22;8303;53.446;9.988;2023-06-22T13:53:06;28.50;99.90
16388;DHT22;8303;53.446;9.988;2023-06-22T13:55:32;28.40;99.90
16388;DHT22;8303;53.446;9.988;2023-06-22T13:57:59;28.20;99.90
16388;DHT22;8303;53.446;9.988;2023-06-22T14:00:26;27.90;99.90
16388;DHT22;8303;53.446;9.988;2023-06-22T14:02:53;27.80;99.90
16388;DHT22;8303;53.446;9.988;2023-06-22T14:05:21;27.60;99.90
16388;DHT22;8303;53.446;9.988;2023-06-22T14:07:48;27.40;99.90
16388;DHT22;8303;53.446;9.988;2023-06-22T14:10:15;27.30;99.90
16388;DHT22;8303;53.446;9.988;2023-06-22T14:12:42;27.10;99.90
16388;DHT22;8303;53.446;9.988;2023-06-22T14:15:10;27.00;99.90
16388;DHT22;8303;53.446;9.988;2023-06-22T14:17:37;26.90;99.90
16388;DHT22;8303;53.446;9.988;2023-06-22T14:20:05;26.60;99.90
16388;DHT22;8303;53.446;9.988;2023-06-22T14:22:35;26.40;99.90
16388;DHT22;8303;53.446;9.988;2023-06-22T14:25:02;26.20;99.90
16388;DHT22;8303;53.446;9.988;2023-06-22T14:27:29;26.20;99.90
16388;DHT22;8303;53.446;9.988;2023-06-22T14:29:56;26.10;99.90
16388;DHT22;8303;53.446;9.988;2023-06-22T14:32:23;26.10;99.90
16388;DHT22;8303;53.446;9.988;2023-06-22T14:34:50;26.00;99.90
16388;DHT22;8303;53.446;9.988;2023-06-22T14:37:17;26.00;99.90
16388;DHT22;8303;53.446;9.988;2023-06-22T14:39:46;26.00;99.90
16388;DHT22;8303;53.446;9.988;2023-06-22T14:42:13;26.10;99.90
16388;DHT22;8303;53.446;9.988;2023-06-22T14:44:40;26.20;99.90
16388;DHT22;8303;53.446;9.988;2023-06-22T14:47:07;26.30;99.90
16388;DHT22;8303;53.446;9.988;2023-06-22T14:49:35;26.50;99.90
16388;DHT22;8303;53.446;9.988;2023-06-22T14:52:02;26.40;99.90
16388;DHT22;8303;53.446;9.988;2023-06-22T14:54:29;26.10;99.90
16388;DHT22;8303;53.446;9.988;2023-06-22T14:56:57;26.10;99.90
16388;DHT22;8303;53.446;9.988;2023-06-22T14:59:24;26.30;99.90
16388;DHT22;8303;53.446;9.988;2023-06-22T15:01:51;26.10;99.90
16388;DHT22;8303;53.446;9.988;2023-06-22T15:04:18;26.20;99.90
16388;DHT22;8303;53.446;9.988;2023-06-22T15:06:45;26.20;99.90
16388;DHT22;8303;53.446;9.988;2023-06-22T15:09:12;26.10;99.90
16388;DHT22;8303;53.446;9.988;2023-06-22T15:11:39;26.10;99.90
16388;DHT22;8303;53.446;9.988;2023-06-22T15:14:07;26.20;99.90
16388;DHT22;8303;53.446;9.988;2023-06-22T15:16:34;26.30;99.90
16388;DHT22;8303;53.446;9.988;2023-06-22T15:19:00;26.30;99.90
16388;DHT22;8303;53.446;9.988;2023-06-22T15:21:27;26.30;99.90
16388;DHT22;8303;53.446;9.988;2023-06-22T15:23:54;26.40;99.90
16388;DHT22;8303;53.446;9.988;2023-06-22T15:26:21;26.40;99.90
16388;DHT22;8303;53.446;9.988;2023-06-22T15:28:48;26.50;99.90
16388;DHT22;8303;53.446;9.988;2023-06-22T15:31:16;26.40;99.90
16388;DHT22;8303;53.446;9.988;2023-06-22T15:33:43;26.40;99.90
16388;DHT22;8303;53.446;9.988;2023-06-22T15:36:10;26.30;99.90
16388;DHT22;8303;53.446;9.988;2023-06-22T15:38:37;26.30;99.90
16388;DHT22;8303;53.446;9.988;2023-06-22T15:41:04;26.30;99.90
16388;DHT22;8303;53.446;9.988;2023-06-22T15:43:31;26.30;99.90
16388;DHT22;8303;53.446;9.988;2023-06-22T15:45:57;26.20;99.90
16388;DHT22;8303;53.446;9.988;2023-06-22T15:48:26;26.20;99.90
16388;DHT22;8303;53.446;9.988;2023-06-22T15:50:52;26.20;99.90
16388;DHT22;8303;53.446;9.988;2023-06-22T15:53:19;26.10;99.90
16388;DHT22;8303;53.446;9.988;2023-06-22T15:55:46;26.00;99.90
16388;DHT22;8303;53.446;9.988;2023-06-22T15:58:15;26.00;99.90
16388;DHT22;8303;53.446;9.988;2023-06-22T16:00:42;26.00;99.90
16388;DHT22;8303;53.446;9.988;2023-06-22T16:03:10;26.00;99.90
16388;DHT22;8303;53.446;9.988;2023-06-22T16:05:38;26.00;99.90
16388;DHT22;8303;53.446;9.988;2023-06-22T16:08:09;26.00;99.90
16388;DHT22;8303;53.446;9.988;2023-06-22T16:10:38;25.90;99.90
16388;DHT22;8303;53.446;9.988;2023-06-22T16:13:05;25.90;99.90
16388;DHT22;8303;53.446;9.988;2023-06-22T16:15:32;25.90;99.90
16388;DHT22;8303;53.446;9.988;2023-06-22T16:17:58;26.00;99.90
16388;DHT22;8303;53.446;9.988;2023-06-22T16:20:25;25.90;99.90
16388;DHT22;8303;53.446;9.988;2023-06-22T16:22:53;25.90;99.90
16388;DHT22;8303;53.446;9.988;2023-06-22T16:25:20;26.00;99.90
16388;DHT22;8303;53.446;9.988;2023-06-22T16:27:47;25.90;99.90
16388;DHT22;8303;53.446;9.988;2023-06-22T16:30:14;25.90;99.90
16388;DHT22;8303;53.446;9.988;2023-06-22T16:32:50;25.90;99.90
16388;DHT22;8303;53.446;9.988;2023-06-22T16:35:17;25.70;99.90
16388;DHT22;8303;53.446;9.988;2023-06-22T16:37:44;25.70;99.90
16388;DHT22;8303;53.446;9.988;2023-06-22T16:40:12;25.60;99.90
16388;DHT22;8303;53.446;9.988;2023-06-22T16:42:40;25.50;99.90
16388;DHT22;8303;53.446;9.988;2023-06-22T16:45:08;25.50;99.90
16388;DHT22;8303;53.446;9.988;2023-06-22T16:47:35;25.40;99.90
16388;DHT22;8303;53.446;9.988;2023-06-22T16:50:03;25.30;99.90
16388;DHT22;8303;53.446;9.988;2023-06-22T16:52:29;25.20;99.90
16388;DHT22;8303;53.446;9.988;2023-06-22T16:54:56;25.10;99.90
16388;DHT22;8303;53.446;9.988;2023-06-22T16:57:25;25.10;99.90
16388;DHT22;8303;53.446;9.988;2023-06-22T16:59:52;25.00;99.90
16388;DHT22;8303;53.446;9.988;2023-06-22T17:02:19;25.00;99.90
16388;DHT22;8303;53.446;9.988;2023-06-22T17:04:51;24.80;99.90
16388;DHT22;8303;53.446;9.988;2023-06-22T17:07:19;24.60;99.90
16388;DHT22;8303;53.446;9.988;2023-06-22T17:09:47;24.60;99.90
16388;DHT22;8303;53.446;9.988;2023-06-22T17:12:15;24.60;99.90
16388;DHT22;8303;53.446;9.988;2023-06-22T17:14:45;24.50;99.90
16388;DHT22;8303;53.446;9.988;2023-06-22T17:17:15;24.40;99.90
16388;DHT22;8303;53.446;9.988;2023-06-22T17:19:42;24.20;99.90
16388;DHT22;8303;53.446;9.988;2023-06-22T17:22:09;24.10;99.90
16388;DHT22;8303;53.446;9.988;2023-06-22T17:24:36;24.00;99.90
16388;DHT22;8303;53.446;9.988;2023-06-22T17:27:03;24.00;99.90
16388;DHT22;8303;53.446;9.988;2023-06-22T17:29:31;24.00;99.90
16388;DHT22;8303;53.446;9.988;2023-06-22T17:32:00;23.90;99.90
16388;DHT22;8303;53.446;9.988;2023-06-22T17:34:29;23.90;99.90
16388;DHT22;8303;53.446;9.988;2023-06-22T17:36:57;23.80;99.90
16388;DHT22;8303;53.446;9.988;2023-06-22T17:39:25;23.70;99.90
16388;DHT22;8303;53.446;9.988;2023-06-22T17:41:54;23.60;99.90
16388;DHT22;8303;53.446;9.988;2023-06-22T17:44:23;23.50;99.90
16388;DHT22;8303;53.446;9.988;2023-06-22T17:46:51;23.50;99.90
16388;DHT22;8303;53.446;9.988;2023-06-22T17:49:21;23.50;99.90
16388;DHT22;8303;53.446;9.988;2023-06-22T17:51:50;23.50;99.90
16388;DHT22;8303;53.446;9.988;2023-06-22T17:54:17;23.40;99.90
16388;DHT22;8303;53.446;9.988;2023-06-22T17:56:48;23.30;99.90
16388;DHT22;8303;53.446;9.988;2023-06-22T17:59:16;23.30;99.90
16388;DHT22;8303;53.446;9.988;2023-06-22T18:01:44;23.20;99.90
16388;DHT22;8303;53.446;9.988;2023-06-22T18:04:12;23.20;99.90
16388;DHT22;8303;53.446;9.988;2023-06-22T18:06:41;23.10;99.90
16388;DHT22;8303;53.446;9.988;2023-06-22T18:09:10;23.10;99.90
16388;DHT22;8303;53.446;9.988;2023-06-22T18:11:42;23.00;99.90
16388;DHT22;8303;53.446;9.988;2023-06-22T18:14:09;23.00;99.90
16388;DHT22;8303;53.446;9.988;2023-06-22T18:16:36;22.80;99.90
16388;DHT22;8303;53.446;9.988;2023-06-22T18:19:04;22.80;99.90
16388;DHT22;8303;53.446;9.988;2023-06-22T18:21:32;22.80;99.90
16388;DHT22;8303;53.446;9.988;2023-06-22T18:24:01;22.70;99.90
16388;DHT22;8303;53.446;9.988;2023-06-22T18:26:28;22.60;99.90
16388;DHT22;8303;53.446;9.988;2023-06-22T18:28:56;22.70;99.90
16388;DHT22;8303;53.446;9.988;2023-06-22T18:31:24;22.80;99.90
16388;DHT22;8303;53.446;9.988;2023-06-22T18:33:52;22.70;99.90
16388;DHT22;8303;53.446;9.988;2023-06-22T18:36:23;22.60;99.90
16388;DHT22;8303;53.446;9.988;2023-06-22T18:38:52;22.60;99.90
16388;DHT22;8303;53.446;9.988;2023-06-22T18:41:24;22.60;99.90
16388;DHT22;8303;53.446;9.988;2023-06-22T18:43:52;22.60;99.90
16388;DHT22;8303;53.446;9.988;2023-06-22T18:46:33;22.60;99.90
16388;DHT22;8303;53.446;9.988;2023-06-22T18:49:02;22.50;99.90
16388;DHT22;8303;53.446;9.988;2023-06-22T18:51:29;22.40;99.90
16388;DHT22;8303;53.446;9.988;2023-06-22T18:54:04;22.40;99.90
16388;DHT22;8303;53.446;9.988;2023-06-22T18:56:32;22.40;99.90
16388;DHT22;8303;53.446;9.988;2023-06-22T18:58:59;22.20;99.90
16388;DHT22;8303;53.446;9.988;2023-06-22T19:01:27;22.10;99.90
16388;DHT22;8303;53.446;9.988;2023-06-22T19:03:57;22.20;99.90
16388;DHT22;8303;53.446;9.988;2023-06-22T19:06:55;22.00;99.90
16388;DHT22;8303;53.446;9.988;2023-06-22T19:09:22;22.10;99.90
16388;DHT22;8303;53.446;9.988;2023-06-22T19:11:50;22.10;99.90
16388;DHT22;8303;53.446;9.988;2023-06-22T19:14:37;22.00;99.90
16388;DHT22;8303;53.446;9.988;2023-06-22T19:17:06;22.00;99.90
16388;DHT22;8303;53.446;9.988;2023-06-22T19:19:34;22.00;99.90
16388;DHT22;8303;53.446;9.988;2023-06-22T19:22:03;22.10;99.90
16388;DHT22;8303;53.446;9.988;2023-06-22T19:24:31;22.00;99.90
16388;DHT22;8303;53.446;9.988;2023-06-22T19:26:59;21.90;99.90
16388;DHT22;8303;53.446;9.988;2023-06-22T19:29:27;21.90;99.90
16388;DHT22;8303;53.446;9.988;2023-06-22T19:31:56;21.80;99.90
16388;DHT22;8303;53.446;9.988;2023-06-22T19:34:23;21.90;99.90
16388;DHT22;8303;53.446;9.988;2023-06-22T19:36:51;21.80;99.90
16388;DHT22;8303;53.446;9.988;2023-06-22T19:39:18;21.80;99.90
16388;DHT22;8303;53.446;9.988;2023-06-22T19:41:45;21.80;99.90
16388;DHT22;8303;53.446;9.988;2023-06-22T19:44:13;21.80;99.90
16388;DHT22;8303;53.446;9.988;2023-06-22T19:46:40;21.70;99.90
16388;DHT22;8303;53.446;9.988;2023-06-22T19:49:08;21.70;99.90
16388;DHT22;8303;53.446;9.988;2023-06-22T19:51:35;21.70;99.90
16388;DHT22;8303;53.446;9.988;2023-06-22T19:54:06;21.60;99.90
16388;DHT22;8303;53.446;9.988;2023-06-22T19:56:34;21.50;99.90
16388;DHT22;8303;53.446;9.988;2023-06-22T19:59:09;21.30;99.90
16388;DHT22;8303;53.446;9.988;2023-06-22T20:01:39;21.10;99.90
16388;DHT22;8303;53.446;9.988;2023-06-22T20:04:06;21.00;99.90
16388;DHT22;8303;53.446;9.988;2023-06-22T20:06:33;20.80;99.90
16388;DHT22;8303;53.446;9.988;2023-06-22T20:09:00;20.60;1.00
16388;DHT22;8303;53.446;9.988;2023-06-22T20:11:30;20.20;1.00
16388;DHT22;8303;53.446;9.988;2023-06-22T20:13:59;19.90;99.90
16388;DHT22;8303;53.446;9.988;2023-06-22T20:16:27;19.50;1.00
16388;DHT22;8303;53.446;9.988;2023-06-22T20:19:06;19.30;1.00
16388;DHT22;8303;53.446;9.988;2023-06-22T20:21:34;19.10;99.90
16388;DHT22;8303;53.446;9.988;2023-06-22T20:24:03;19.00;1.00
16388;DHT22;8303;53.446;9.988;2023-06-22T20:26:37;19.00;1.00
16388;DHT22;8303;53.446;9.988;2023-06-22T20:29:22;18.80;99.60
